Time;durP1;ratioP1;P1;durP2;ratioP2;P2;SDS_P1;SDS_P2;PMS_P1;PMS_P2;Temp;Humidity;BMP_temperature;BMP_pressure;BME280_temperature;BME280_humidity;BME280_pressure;Samples;Min_cycle;Max_cycle;Signal;HPM_P1;HPM_P2
2022/09/29 00:01:54;;;;;;;8.43;3.73;;;;;;;-145.69;100.00;71095.97;5032797;28;20200;-74
2022/09/29 00:04:21;;;;;;;9.90;3.53;;;;;;;-145.69;100.00;71086.03;5033885;28;20287;-74
2022/09/29 00:06:47;;;;;;;8.20;4.27;;;;;;;-145.69;100.00;71086.03;5033619;28;20197;-74
2022/09/29 00:09:15;;;;;;;6.80;4.03;;;;;;;-145.69;100.00;71080.06;5033062;28;20298;-74
2022/09/29 00:11:42;;;;;;;9.65;4.82;;;;;;;-145.69;100.00;71078.06;5033904;28;20433;-74
2022/09/29 00:14:09;;;;;;;7.13;4.00;;;;;;;-145.69;100.00;71076.06;5033462;28;20223;-73
2022/09/29 00:16:35;;;;;;;8.50;4.10;;;;;;;-145.69;100.00;71068.13;5033516;28;20243;-74
2022/09/29 00:19:02;;;;;;;6.90;3.60;;;;;;;-145.69;100.00;71068.13;5033795;28;20795;-72
2022/09/29 00:21:28;;;;;;;9.37;3.97;;;;;;;-145.69;100.00;71068.13;5032560;28;20203;-73
2022/09/29 00:23:55;;;;;;;6.83;3.60;;;;;;;-145.69;100.00;71068.13;5033697;28;20196;-73
2022/09/29 00:26:24;;;;;;;8.40;4.03;;;;;;;-145.69;100.00;71068.13;5033124;28;20192;-75
2022/09/29 00:28:54;;;;;;;6.97;3.47;;;;;;;-145.69;100.00;71072.09;5033621;28;20204;-74
2022/09/29 00:31:21;;;;;;;5.97;3.53;;;;;;;-145.69;100.00;71064.13;5033052;28;20231;-74
2022/09/29 00:33:47;;;;;;;6.27;3.60;;;;;;;-145.69;100.00;71058.16;5033278;28;20211;-74
2022/09/29 00:36:16;;;;;;;8.93;4.03;;;;;;;-145.69;100.00;71058.16;5033364;28;20236;-74
2022/09/29 00:38:44;;;;;;;6.03;3.47;;;;;;;-145.69;100.00;71056.16;5033520;28;20211;-74
2022/09/29 00:41:16;;;;;;;6.17;3.23;;;;;;;-145.69;100.00;71056.16;5033447;28;20250;-74
2022/09/29 00:43:55;;;;;;;9.63;4.10;;;;;;;-145.69;100.00;71052.19;5033385;28;20555;-74
2022/09/29 00:46:28;;;;;;;15.30;4.90;;;;;;;-145.69;100.00;71052.19;5033630;28;20210;-74
2022/09/29 00:48:55;;;;;;;7.03;3.73;;;;;;;-145.69;100.00;71044.22;5033099;28;20570;-74
2022/09/29 00:51:22;;;;;;;8.30;3.93;;;;;;;-145.69;100.00;71044.22;5033123;28;20188;-74
2022/09/29 00:53:49;;;;;;;5.57;3.47;;;;;;;-145.69;100.00;71040.25;5033201;28;20697;-74
2022/09/29 00:56:18;;;;;;;11.10;3.70;;;;;;;-145.69;100.00;71040.25;5033234;28;20263;-75
2022/09/29 00:58:53;;;;;;;6.90;3.73;;;;;;;-145.69;100.00;71036.28;5033083;28;20705;-74
2022/09/29 01:01:21;;;;;;;9.50;3.90;;;;;;;-145.69;100.00;71036.28;5033328;28;20204;-74
2022/09/29 01:03:50;;;;;;;10.93;4.63;;;;;;;-145.69;100.00;71040.25;5032690;28;20204;-74
2022/09/29 01:06:21;;;;;;;7.53;3.60;;;;;;;-145.69;100.00;71028.31;5032946;28;20673;-74
2022/09/29 01:08:56;;;;;;;9.30;4.47;;;;;;;-145.69;100.00;71034.28;5032698;28;20520;-74
2022/09/29 01:11:23;;;;;;;7.87;4.37;;;;;;;-145.69;100.00;71030.31;5032863;28;20269;-74
2022/09/29 01:13:50;;;;;;;7.57;4.20;;;;;;;-145.69;100.00;71030.31;5032423;28;20283;-74
2022/09/29 01:16:17;;;;;;;7.83;3.97;;;;;;;-145.69;100.00;71032.28;5032717;28;20242;-74
2022/09/29 01:18:46;;;;;;;5.23;3.47;;;;;;;-145.69;100.00;71036.28;5032828;28;20226;-74
2022/09/29 01:21:20;;;;;;;6.70;3.97;;;;;;;-145.69;100.00;71030.31;5031958;28;20554;-74
2022/09/29 01:24:31;;;;;;;11.07;4.40;;;;;;;-145.69;100.00;71028.31;5032884;28;20654;-74
2022/09/29 01:27:13;;;;;;;9.87;3.73;;;;;;;-145.69;100.00;71020.34;4961731;28;20200;-74
2022/09/29 01:30:09;;;;;;;12.13;4.23;;;;;;;-145.69;100.00;71024.34;5032522;28;20566;-74
2022/09/29 01:33:12;;;;;;;9.40;4.33;;;;;;;-145.69;100.00;71018.38;5030908;28;20227;-74
2022/09/29 01:35:48;;;;;;;7.63;4.57;;;;;;;-145.69;100.00;71020.34;5029948;28;20203;-73
2022/09/29 01:38:39;;;;;;;10.77;4.50;;;;;;;-145.69;100.00;71016.38;5032938;28;20214;-73
2022/09/29 01:41:10;;;;;;;9.50;4.43;;;;;;;-145.69;100.00;71018.38;5032608;28;20203;-74
2022/09/29 01:43:43;;;;;;;9.67;4.27;;;;;;;-145.69;100.00;71018.38;5032697;28;20210;-73
2022/09/29 01:46:16;;;;;;;13.40;4.20;;;;;;;-145.69;100.00;71012.41;5032736;28;20207;-74
2022/09/29 01:48:49;;;;;;;8.47;4.30;;;;;;;-145.69;100.00;71016.38;5032815;28;20200;-73
2022/09/29 01:51:19;;;;;;;11.40;4.03;;;;;;;-145.69;100.00;71012.41;5032191;28;20196;-75
2022/09/29 01:53:49;;;;;;;7.80;4.10;;;;;;;-145.69;100.00;71018.38;5032642;28;20560;-75
2022/09/29 01:56:21;;;;;;;8.77;3.80;;;;;;;-145.69;100.00;71014.38;5032420;28;20706;-75
2022/09/29 01:58:53;;;;;;;7.57;4.23;;;;;;;-145.69;100.00;71010.41;5032489;28;20207;-74
2022/09/29 02:01:23;;;;;;;8.27;4.60;;;;;;;-145.69;100.00;71010.41;5032686;28;20204;-74
2022/09/29 02:03:57;;;;;;;11.17;4.30;;;;;;;-145.69;100.00;71010.41;5032617;28;20210;-74
2022/09/29 02:06:27;;;;;;;12.27;5.78;;;;;;;-145.69;100.00;71012.41;5031429;28;20451;-74
2022/09/29 02:08:56;;;;;;;9.20;4.63;;;;;;;-145.69;100.00;71020.34;5031992;28;20208;-74
2022/09/29 02:11:23;;;;;;;8.27;4.33;;;;;;;-145.69;100.00;71022.34;5032599;28;20292;-74
2022/09/29 02:13:53;;;;;;;6.83;3.87;;;;;;;-145.69;100.00;71020.34;5031864;28;20763;-74
2022/09/29 02:16:24;;;;;;;11.50;4.00;;;;;;;-145.69;100.00;71020.34;5031296;28;20698;-74
2022/09/29 02:18:54;;;;;;;7.67;3.97;;;;;;;-145.69;100.00;71008.41;5032116;28;20201;-73
2022/09/29 02:21:22;;;;;;;6.03;3.53;;;;;;;-145.69;100.00;71008.41;5030819;28;20200;-73
2022/09/29 02:23:49;;;;;;;7.67;4.03;;;;;;;-145.69;100.00;70996.47;5031597;28;20603;-74
2022/09/29 02:26:16;;;;;;;8.53;4.50;;;;;;;-145.69;100.00;71002.44;5035346;28;20208;-74
2022/09/29 02:28:44;;;;;;;9.83;4.53;;;;;;;-145.69;100.00;70994.50;5035198;28;20682;-74
2022/09/29 02:31:11;;;;;;;9.17;3.97;;;;;;;-145.69;100.00;70992.50;5035270;28;20208;-73
2022/09/29 02:33:38;;;;;;;10.20;4.00;;;;;;;-145.69;100.00;70982.56;5032413;28;20200;-74
2022/09/29 02:36:18;;;;;;;7.87;4.47;;;;;;;-145.69;100.00;70992.50;5035107;28;20590;-74
2022/09/29 02:38:52;;;;;;;10.50;4.20;;;;;;;-145.69;100.00;70992.50;5035255;28;20204;-73
2022/09/29 02:41:34;;;;;;;8.57;4.10;;;;;;;-145.69;100.00;70990.50;5035855;28;20199;-74
2022/09/29 02:44:25;;;;;;;11.30;5.23;;;;;;;-145.69;100.00;71000.47;5035647;28;20204;-74
2022/09/29 02:47:14;;;;;;;7.40;3.30;;;;;;;-145.69;100.00;71000.47;5035780;28;20200;-74
2022/09/29 02:49:57;;;;;;;7.73;3.93;;;;;;;-145.69;100.00;71002.44;5035686;28;20226;-74
2022/09/29 02:52:34;;;;;;;6.17;3.57;;;;;;;-145.69;100.00;70996.47;5035248;28;20196;-74
2022/09/29 02:55:09;;;;;;;5.20;3.50;;;;;;;-145.69;100.00;70996.47;5035355;28;20228;-74
2022/09/29 02:57:45;;;;;;;9.13;3.97;;;;;;;-145.69;100.00;70978.56;5035476;28;20238;-74
2022/09/29 03:00:15;;;;;;;7.17;4.03;;;;;;;-145.69;100.00;70984.53;5035256;28;20554;-74
2022/09/29 03:02:43;;;;;;;10.23;4.73;;;;;;;-145.69;100.00;70984.53;5035220;28;20204;-73
2022/09/29 03:05:11;;;;;;;8.03;4.10;;;;;;;-145.69;100.00;70978.56;5034835;28;20215;-74
2022/09/29 03:07:40;;;;;;;9.60;4.27;;;;;;;-145.69;100.00;70984.53;5034228;28;20678;-74
2022/09/29 03:10:09;;;;;;;7.73;4.10;;;;;;;-145.69;100.00;70988.53;5034721;28;20204;-74
2022/09/29 03:12:35;;;;;;;8.90;4.10;;;;;;;-145.69;100.00;70976.59;5034782;28;20558;-74
2022/09/29 03:15:03;;;;;;;7.40;4.17;;;;;;;-145.69;100.00;70970.63;5035143;28;20210;-74
2022/09/29 03:17:30;;;;;;;9.93;4.40;;;;;;;-145.69;100.00;70970.63;5034485;28;20346;-74
2022/09/29 03:19:57;;;;;;;10.53;4.30;;;;;;;-145.69;100.00;70962.66;5034886;28;20609;-74
2022/09/29 03:22:24;;;;;;;7.97;3.87;;;;;;;-145.69;100.00;70956.69;5034564;28;20200;-74
2022/09/29 03:24:52;;;;;;;7.90;4.07;;;;;;;-145.69;100.00;70952.72;5034964;28;20572;-73
2022/09/29 03:27:18;;;;;;;11.13;4.43;;;;;;;-145.69;100.00;70948.72;5034837;28;20200;-74
2022/09/29 03:29:45;;;;;;;11.13;4.00;;;;;;;-145.69;100.00;70960.66;5034858;28;20279;-74
2022/09/29 03:32:11;;;;;;;13.83;4.67;;;;;;;-145.69;100.00;70968.63;5034615;28;20207;-74
2022/09/29 03:34:38;;;;;;;9.17;3.87;;;;;;;-145.69;100.00;70966.63;5034853;28;20203;-74
2022/09/29 03:37:04;;;;;;;6.47;3.70;;;;;;;-145.69;100.00;70964.66;5034051;28;20239;-75
2022/09/29 03:39:31;;;;;;;8.93;3.90;;;;;;;-145.69;100.00;70960.66;5034722;28;20212;-74
2022/09/29 03:41:59;;;;;;;10.20;3.83;;;;;;;-145.69;100.00;70964.66;5034742;28;20195;-73
2022/09/29 03:44:25;;;;;;;5.43;3.33;;;;;;;-145.69;100.00;70960.66;5034260;28;20207;-74
2022/09/29 03:46:52;;;;;;;5.53;3.17;;;;;;;-145.69;100.00;70964.66;5034589;28;20227;-74
2022/09/29 03:49:18;;;;;;;7.27;3.80;;;;;;;-145.69;100.00;70964.66;5034455;28;20203;-74
2022/09/29 03:51:45;;;;;;;9.47;3.07;;;;;;;-145.69;100.00;70972.59;5033163;28;20208;-74
2022/09/29 03:54:12;;;;;;;8.47;3.37;;;;;;;-145.69;100.00;70968.63;5033707;28;20207;-75
2022/09/29 03:56:38;;;;;;;9.00;3.67;;;;;;;-145.69;100.00;70968.63;5034028;28;20212;-74
2022/09/29 03:59:09;;;;;;;8.37;4.00;;;;;;;-145.69;100.00;70964.66;5033601;28;20207;-74
2022/09/29 04:01:36;;;;;;;6.33;2.67;;;;;;;-145.69;100.00;70968.63;5033437;28;20258;-74
2022/09/29 04:04:04;;;;;;;5.53;2.63;;;;;;;-145.69;100.00;70964.66;5033501;28;20262;-74
2022/09/29 04:06:30;;;;;;;5.93;2.80;;;;;;;-145.69;100.00;70968.63;5033860;28;20228;-74
2022/09/29 04:08:57;;;;;;;6.63;2.90;;;;;;;-145.69;100.00;70970.63;5033057;28;20215;-74
2022/09/29 04:11:23;;;;;;;7.23;3.03;;;;;;;-145.69;100.00;70986.53;5033601;28;20703;-74
2022/09/29 04:13:50;;;;;;;5.40;2.23;;;;;;;-145.69;100.00;70990.50;5033463;28;20204;-74
2022/09/29 04:16:18;;;;;;;4.60;2.23;;;;;;;-145.69;100.00;71000.47;5033592;28;20694;-74
2022/09/29 04:18:44;;;;;;;5.00;2.63;;;;;;;-145.69;100.00;71006.44;5033656;28;20228;-74
2022/09/29 04:21:12;;;;;;;7.17;2.77;;;;;;;-145.69;100.00;71012.41;5030453;28;20210;-74
2022/09/29 04:23:38;;;;;;;5.17;2.03;;;;;;;-145.69;100.00;71026.31;5032151;28;20342;-73
2022/09/29 04:26:05;;;;;;;2.93;2.20;;;;;;;-145.69;100.00;71032.28;5033749;28;20200;-73
2022/09/29 04:28:33;;;;;;;6.80;2.63;;;;;;;-145.69;100.00;71032.28;5033545;28;20536;-74
2022/09/29 04:31:00;;;;;;;6.63;2.80;;;;;;;-145.69;100.00;71032.28;5033247;28;20207;-74
2022/09/29 04:33:28;;;;;;;13.53;2.53;;;;;;;-145.69;100.00;71032.28;5033499;28;20200;-74
2022/09/29 04:35:55;;;;;;;6.13;3.37;;;;;;;-145.69;100.00;71038.25;5033525;28;20371;-74
2022/09/29 04:38:22;;;;;;;6.03;2.97;;;;;;;-145.69;100.00;71040.25;5033484;28;20224;-73
2022/09/29 04:40:48;;;;;;;8.10;2.87;;;;;;;-145.69;100.00;71036.28;5033380;28;20215;-74
2022/09/29 04:43:15;;;;;;;4.67;2.80;;;;;;;-145.69;100.00;71040.25;5033342;28;20287;-74
2022/09/29 04:45:42;;;;;;;7.77;3.13;;;;;;;-145.69;100.00;71036.28;5033353;28;20204;-74
2022/09/29 04:48:08;;;;;;;5.10;2.87;;;;;;;-145.69;100.00;71036.28;5032603;28;20208;-73
2022/09/29 04:50:36;;;;;;;7.03;3.63;;;;;;;-145.69;100.00;71032.28;5032754;28;20655;-74
2022/09/29 04:53:02;;;;;;;10.33;3.40;;;;;;;-145.69;100.00;71032.28;5033329;28;20215;-75
2022/09/29 04:55:29;;;;;;;6.47;3.00;;;;;;;-145.69;100.00;71032.28;5033149;28;20208;-75
2022/09/29 04:57:55;;;;;;;7.77;3.37;;;;;;;-145.69;100.00;71028.31;5033342;28;20235;-75
2022/09/29 05:00:22;;;;;;;6.20;3.60;;;;;;;-145.69;100.00;71036.28;5033375;28;20201;-74
2022/09/29 05:02:48;;;;;;;8.13;3.23;;;;;;;-145.69;100.00;71036.28;5033267;28;20559;-74
2022/09/29 05:05:15;;;;;;;7.63;3.80;;;;;;;-145.69;100.00;71032.28;5033152;28;20204;-75
2022/09/29 05:07:43;;;;;;;7.27;3.60;;;;;;;-145.69;100.00;71028.31;5033136;28;20227;-75
2022/09/29 05:10:09;;;;;;;9.30;3.13;;;;;;;-145.69;100.00;71020.34;5032589;28;20737;-74
2022/09/29 05:12:36;;;;;;;7.77;3.30;;;;;;;-145.69;100.00;71020.34;5033265;28;20215;-74
2022/09/29 05:15:05;;;;;;;5.60;3.30;;;;;;;-145.69;100.00;71018.38;5032962;28;20698;-74
2022/09/29 05:17:31;;;;;;;9.00;3.63;;;;;;;-145.69;100.00;71022.34;5032652;28;20235;-75
2022/09/29 05:19:58;;;;;;;7.43;3.60;;;;;;;-145.69;100.00;71022.34;5032574;28;20210;-74
2022/09/29 05:22:24;;;;;;;6.27;3.13;;;;;;;-145.69;100.00;71030.31;5032826;28;20211;-75
2022/09/29 05:24:53;;;;;;;4.70;2.37;;;;;;;-145.69;100.00;71026.31;5032766;28;20203;-75
2022/09/29 05:27:21;;;;;;;5.60;2.83;;;;;;;-145.69;100.00;71024.34;5032942;28;20207;-74
2022/09/29 05:29:47;;;;;;;12.20;2.83;;;;;;;-145.69;100.00;71032.28;5032940;28;20294;-74
2022/09/29 05:32:14;;;;;;;6.07;2.80;;;;;;;-145.69;100.00;71022.34;5032441;28;20211;-74
2022/09/29 05:34:40;;;;;;;7.57;3.10;;;;;;;-145.69;100.00;71022.34;5032847;28;20211;-75
2022/09/29 05:37:07;;;;;;;9.33;3.43;;;;;;;-145.69;100.00;71020.34;5032680;28;20204;-74
2022/09/29 05:39:36;;;;;;;8.43;3.03;;;;;;;-145.69;100.00;71020.34;5032678;28;20211;-74
2022/09/29 05:42:05;;;;;;;5.07;2.93;;;;;;;-145.69;100.00;71022.34;5032701;28;20663;-74
2022/09/29 05:44:32;;;;;;;8.97;2.80;;;;;;;-145.69;100.00;71024.34;5032784;28;20200;-75
2022/09/29 05:46:58;;;;;;;5.43;2.60;;;;;;;-145.69;100.00;71026.31;5032627;28;20212;-75
2022/09/29 05:49:25;;;;;;;7.27;2.57;;;;;;;-145.69;100.00;71022.34;5032827;28;20204;-74
2022/09/29 05:51:52;;;;;;;5.10;2.40;;;;;;;-145.69;100.00;71020.34;5032428;28;20258;-74
2022/09/29 05:54:19;;;;;;;6.30;3.00;;;;;;;-145.69;100.00;71012.41;5032765;28;20203;-74
2022/09/29 05:56:45;;;;;;;5.27;3.00;;;;;;;-145.69;100.00;71014.38;5032723;28;20204;-74
2022/09/29 05:59:13;;;;;;;6.03;2.93;;;;;;;-145.69;100.00;71012.41;5032531;28;20228;-74
2022/09/29 06:01:40;;;;;;;8.40;2.70;;;;;;;-145.69;100.00;71012.41;5036371;28;20555;-74
2022/09/29 06:04:07;;;;;;;8.00;3.20;;;;;;;-145.69;100.00;71020.34;5036111;28;20196;-74
2022/09/29 06:06:35;;;;;;;10.47;3.07;;;;;;;-145.69;100.00;71016.38;5036602;28;20562;-74
2022/09/29 06:09:01;;;;;;;5.63;3.10;;;;;;;-145.69;100.00;71018.38;5036464;28;20232;-74
2022/09/29 06:11:30;;;;;;;4.00;2.80;;;;;;;-145.69;100.00;71008.41;5036250;28;20200;-73
2022/09/29 06:13:58;;;;;;;4.57;2.97;;;;;;;-145.69;100.00;71000.47;5036377;28;20262;-74
2022/09/29 06:16:27;;;;;;;9.27;3.73;;;;;;;-145.69;100.00;70988.53;5036013;28;20597;-74
2022/09/29 06:18:54;;;;;;;8.60;4.10;;;;;;;-145.69;100.00;70998.47;5035979;28;20231;-74
2022/09/29 06:21:22;;;;;;;9.47;3.67;;;;;;;-145.69;100.00;71004.44;5036019;28;20192;-74
2022/09/29 06:23:49;;;;;;;7.83;4.67;;;;;;;-145.69;100.00;71002.44;5035585;28;20212;-74
2022/09/29 06:26:18;;;;;;;8.37;4.57;;;;;;;-145.69;100.00;70996.47;5035838;28;20200;-74
2022/09/29 06:28:45;;;;;;;8.93;4.80;;;;;;;-145.69;100.00;70996.47;5035756;28;20659;-74
2022/09/29 06:31:13;;;;;;;11.33;5.57;;;;;;;-145.69;100.00;70984.53;5035767;28;20539;-75
2022/09/29 06:33:42;;;;;;;10.40;4.77;;;;;;;-145.69;100.00;70982.56;5035590;28;20204;-74
2022/09/29 06:39:00;;;;;;;9.20;4.40;;;;;;;-145.69;100.00;70980.56;5035703;28;20230;-74
2022/09/29 06:41:28;;;;;;;11.03;4.83;;;;;;;-145.69;100.00;70978.56;5035818;28;20200;-73
2022/09/29 06:43:55;;;;;;;7.67;3.97;;;;;;;-145.69;100.00;70980.56;5035447;28;20262;-74
2022/09/29 06:46:22;;;;;;;8.97;4.10;;;;;;;-145.69;100.00;70968.63;5035796;28;20230;-73
2022/09/29 06:48:49;;;;;;;8.97;4.00;;;;;;;-145.69;100.00;70972.59;5035706;28;20207;-74
2022/09/29 06:51:16;;;;;;;7.50;4.00;;;;;;;-145.69;100.00;70954.69;5035217;28;20184;-74
2022/09/29 06:53:44;;;;;;;6.63;4.20;;;;;;;-145.69;100.00;70950.72;5035138;28;20204;-74
2022/09/29 06:56:10;;;;;;;7.10;4.30;;;;;;;-145.69;100.00;70930.81;5035281;28;20196;-74
2022/09/29 06:58:38;;;;;;;8.40;4.20;;;;;;;-145.69;100.00;70928.84;5035078;28;20694;-73
2022/09/29 07:01:05;;;;;;;8.83;4.17;;;;;;;-145.69;100.00;70920.88;5035346;28;20558;-73
2022/09/29 07:03:34;;;;;;;8.37;4.23;;;;;;;-145.69;100.00;70912.91;5035175;28;20203;-75
2022/09/29 07:06:03;;;;;;;6.93;4.03;;;;;;;-145.69;100.00;70906.94;5035324;28;20206;-74
2022/09/29 07:08:30;;;;;;;7.50;4.60;;;;;;;-145.69;100.00;70895.00;5035238;28;20208;-74
2022/09/29 07:10:57;;;;;;;14.83;5.60;;;;;;;-145.69;100.00;70904.97;5034477;28;20553;-74
2022/09/29 07:13:24;;;;;;;10.67;4.37;;;;;;;-145.69;100.00;70912.91;5034670;28;20204;-74
2022/09/29 07:15:50;;;;;;;6.47;4.50;;;;;;;-145.69;100.00;70897.00;5034909;28;20710;-74
2022/09/29 07:18:17;;;;;;;8.53;4.90;;;;;;;-145.69;100.00;70881.09;5035126;28;20598;-74
2022/09/29 07:20:43;;;;;;;9.90;4.70;;;;;;;-145.69;100.00;70869.16;5034632;28;20681;-74
2022/09/29 07:23:11;;;;;;;7.63;4.17;;;;;;;-145.69;100.00;70839.31;5035004;28;20208;-74
2022/09/29 07:25:37;;;;;;;7.67;4.40;;;;;;;-145.69;100.00;70819.41;5034859;28;20200;-74
2022/09/29 07:28:04;;;;;;;7.30;3.50;;;;;;;-145.69;100.00;70809.47;5035062;28;20211;-74
2022/09/29 07:30:31;;;;;;;6.53;3.60;;;;;;;-145.69;100.00;70801.50;5034936;28;20208;-74
2022/09/29 07:32:57;;;;;;;9.90;3.03;;;;;;;-145.69;100.00;70775.63;5034801;28;20196;-74
2022/09/29 07:35:24;;;;;;;4.17;3.00;;;;;;;-145.69;100.00;70805.47;5034835;28;20200;-74
2022/09/29 07:37:52;;;;;;;4.87;2.63;;;;;;;-145.69;100.00;70781.59;5034255;28;20200;-75
2022/09/29 07:40:20;;;;;;;5.50;3.30;;;;;;;-145.69;100.00;70761.72;5034567;28;20223;-73
2022/09/29 07:42:47;;;;;;;3.63;2.80;;;;;;;-145.69;100.00;70741.81;5034708;28;20303;-73
2022/09/29 07:45:13;;;;;;;4.67;3.00;;;;;;;-145.69;100.00;70725.91;5034627;28;20222;-73
2022/09/29 07:47:40;;;;;;;5.60;2.77;;;;;;;-145.69;100.00;70745.78;5034553;28;20196;-75
2022/09/29 07:50:07;;;;;;;4.83;2.43;;;;;;;-145.69;100.00;70753.75;5033991;28;20192;-75
2022/09/29 07:52:34;;;;;;;8.17;2.83;;;;;;;-145.69;100.00;70743.81;5034387;28;20206;-74
2022/09/29 07:55:00;;;;;;;4.40;2.50;;;;;;;-145.69;100.00;70741.81;5034291;28;20203;-74
2022/09/29 07:57:28;;;;;;;4.93;2.70;;;;;;;-145.69;100.00;70749.78;5033913;28;20196;-74
2022/09/29 07:59:56;;;;;;;3.60;2.37;;;;;;;-145.69;100.00;70700.03;5034091;28;20235;-73
2022/09/29 08:02:23;;;;;;;4.00;2.30;;;;;;;-145.69;100.00;70682.13;5033800;28;20211;-74
2022/09/29 08:04:50;;;;;;;4.43;2.30;;;;;;;-145.69;100.00;70737.84;5033593;28;20692;-75
2022/09/29 08:07:16;;;;;;;3.33;1.90;;;;;;;-145.69;100.00;70698.03;5034023;28;20200;-74
2022/09/29 08:09:43;;;;;;;3.13;1.93;;;;;;;-145.69;100.00;70686.09;5034283;28;20211;-74
2022/09/29 08:12:09;;;;;;;2.40;1.90;;;;;;;-145.69;100.00;70674.16;5034200;28;20242;-74
2022/09/29 08:14:38;;;;;;;2.65;1.70;;;;;;;-145.69;100.00;70706.00;5034120;28;20203;-74
2022/09/29 08:17:04;;;;;;;3.88;2.20;;;;;;;-145.69;100.00;70725.91;5033791;28;20236;-73
2022/09/29 08:19:31;;;;;;;5.43;2.80;;;;;;;-145.69;100.00;70713.97;5033748;28;20589;-74
2022/09/29 08:21:57;;;;;;;6.70;2.27;;;;;;;-145.69;100.00;70698.03;5033183;28;20215;-75
2022/09/29 08:24:24;;;;;;;3.63;2.20;;;;;;;-145.69;100.00;70676.16;5032998;28;20540;-73
2022/09/29 08:26:50;;;;;;;4.27;2.13;;;;;;;-145.69;100.00;70686.09;5033695;28;20242;-75
2022/09/29 08:29:17;;;;;;;5.95;2.40;;;;;;;-145.69;100.00;70670.19;5033810;28;20200;-73
2022/09/29 08:31:46;;;;;;;2.33;1.83;;;;;;;-145.69;100.00;70624.44;5033732;28;20204;-73
2022/09/29 08:34:13;;;;;;;4.18;1.95;;;;;;;-145.69;100.00;70602.56;5033071;28;20189;-73
2022/09/29 08:36:39;;;;;;;3.92;1.90;;;;;;;-145.69;100.00;70616.47;5033662;28;20346;-75
2022/09/29 08:39:06;;;;;;;2.40;1.73;;;;;;;-145.69;100.00;70648.31;5033405;28;20709;-74
2022/09/29 08:41:50;;;;;;;2.47;1.63;;;;;;;-145.69;100.00;70692.06;5033570;28;20199;-74
2022/09/29 08:44:22;;;;;;;2.20;1.53;;;;;;;-145.69;100.00;70686.09;5033571;28;20258;-73
2022/09/29 08:46:55;;;;;;;2.28;1.75;;;;;;;-145.69;100.00;70656.25;5033266;28;20659;-73
2022/09/29 08:49:28;;;;;;;3.78;1.95;;;;;;;-145.69;100.00;70644.31;5033336;28;20677;-73
2022/09/29 08:51:58;;;;;;;3.97;1.85;;;;;;;-145.69;100.00;70634.38;5033567;28;20211;-74
2022/09/29 08:54:31;;;;;;;4.57;1.80;;;;;;;-145.69;100.00;70674.16;5033486;28;20227;-73
2022/09/29 08:56:59;;;;;;;5.68;1.30;;;;;;;-145.69;100.00;70588.63;5033298;28;20228;-73
2022/09/29 08:59:27;;;;;;;3.17;1.50;;;;;;;-145.69;100.00;70626.41;5032875;28;20228;-74
2022/09/29 09:02:15;;;;;;;3.53;1.65;;;;;;;-145.69;100.00;70626.41;5032903;28;20200;-74
2022/09/29 09:05:12;;;;;;;6.20;1.90;;;;;;;-145.69;100.00;70684.13;5033288;28;20200;-74
2022/09/29 09:07:46;;;;;;;3.75;1.60;;;;;;;-145.69;100.00;70618.47;5033029;28;20292;-74
2022/09/29 09:10:23;;;;;;;3.17;1.58;;;;;;;-145.69;100.00;70666.22;5033035;28;20574;-74
2022/09/29 09:13:05;;;;;;;5.13;1.95;;;;;;;-145.69;100.00;70686.09;5033315;28;20206;-75
2022/09/29 09:16:03;;;;;;;4.55;1.88;;;;;;;-145.69;100.00;70684.13;5032766;28;20204;-74
2022/09/29 09:18:50;;;;;;;4.30;1.88;;;;;;;-145.69;100.00;70670.19;5032782;28;20238;-74
2022/09/29 09:21:18;;;;;;;4.15;2.10;;;;;;;-145.69;100.00;70590.63;5030426;28;20685;-74
2022/09/29 09:23:54;;;;;;;5.45;2.10;;;;;;;-145.69;100.00;70654.28;5032985;28;20200;-74
2022/09/29 09:26:26;;;;;;;3.97;1.90;;;;;;;-145.69;100.00;70618.47;5032863;28;20207;-74
2022/09/29 09:29:00;;;;;;;2.65;1.88;;;;;;;-145.69;100.00;70608.53;5033012;28;20197;-74
2022/09/29 09:31:32;;;;;;;3.70;1.90;;;;;;;-145.69;100.00;70630.41;5032429;28;20227;-74
2022/09/29 09:34:06;;;;;;;3.13;1.95;;;;;;;-145.69;100.00;70600.56;5032884;28;20276;-74
2022/09/29 09:36:37;;;;;;;3.35;1.70;;;;;;;-145.69;100.00;70592.59;5036636;28;20290;-74
2022/09/29 09:39:12;;;;;;;3.08;1.80;;;;;;;-145.69;100.00;70630.41;5036774;28;20223;-73
2022/09/29 09:41:41;;;;;;;2.90;1.70;;;;;;;-145.69;100.00;70558.78;5037040;28;20210;-73
2022/09/29 09:44:16;;;;;;;2.33;1.30;;;;;;;-145.69;100.00;70519.00;5036930;28;20226;-74
2022/09/29 09:46:48;;;;;;;3.00;1.30;;;;;;;-145.69;100.00;70522.97;5036843;28;20202;-73
2022/09/29 09:49:20;;;;;;;4.22;1.50;;;;;;;-145.69;100.00;70487.16;5036686;28;20610;-73
2022/09/29 09:51:54;;;;;;;6.40;1.92;;;;;;;-145.69;100.00;70457.31;5036704;28;20322;-74
2022/09/29 09:54:28;;;;;;;5.45;1.55;;;;;;;-145.69;100.00;70459.31;5036722;28;20282;-74
2022/09/29 09:57:40;;;;;;;2.70;1.50;;;;;;;-145.69;100.00;70431.47;5036751;28;20203;-75
2022/09/29 10:00:11;;;;;;;2.80;2.00;;;;;;;-145.69;100.00;70463.28;5036142;28;20230;-75
2022/09/29 10:02:44;;;;;;;5.50;2.13;;;;;;;-145.69;100.00;70457.31;5035984;28;20211;-74
2022/09/29 10:05:15;;;;;;;4.35;1.95;;;;;;;-145.69;100.00;70455.34;5036571;28;20258;-74
2022/09/29 10:07:42;;;;;;;3.95;1.90;;;;;;;-145.69;100.00;70451.34;5036488;28;20258;-74
2022/09/29 10:10:16;;;;;;;4.43;2.03;;;;;;;-145.69;100.00;70471.25;5036369;28;20243;-74
2022/09/29 10:12:43;;;;;;;5.10;2.47;;;;;;;-145.69;100.00;70534.91;5036610;28;20206;-74
2022/09/29 10:15:18;;;;;;;3.97;1.88;;;;;;;-145.69;100.00;70491.13;5036191;28;20686;-74
2022/09/29 10:17:49;;;;;;;3.20;2.05;;;;;;;-145.69;100.00;70475.22;5036301;28;20565;-73
2022/09/29 10:20:31;;;;;;;2.53;1.63;;;;;;;-145.69;100.00;70507.06;5035577;28;20231;-73
2022/09/29 10:23:20;;;;;;;4.80;1.80;;;;;;;-145.69;100.00;70423.50;5036242;28;20203;-73
2022/09/29 10:25:54;;;;;;;5.20;1.95;;;;;;;-145.69;100.00;70475.22;5036076;28;20258;-73
2022/09/29 10:28:23;;;;;;;4.40;1.90;;;;;;;-145.69;100.00;70409.56;5035888;28;20200;-73
2022/09/29 10:30:50;;;;;;;4.95;1.92;;;;;;;-145.69;100.00;70473.22;5035608;28;20647;-74
2022/09/29 10:33:19;;;;;;;4.55;2.08;;;;;;;-145.69;100.00;70459.31;5035804;28;20299;-75
2022/09/29 10:35:48;;;;;;;5.50;2.20;;;;;;;-145.69;100.00;70532.91;5036034;28;20224;-75
2022/09/29 10:38:23;;;;;;;3.67;2.10;;;;;;;-145.69;100.00;70443.41;5035845;28;20200;-75
2022/09/29 10:40:56;;;;;;;6.68;2.60;;;;;;;-145.69;100.00;70459.31;5035697;28;20235;-75
2022/09/29 10:43:25;;;;;;;6.78;2.13;;;;;;;-145.69;100.00;70433.44;5035595;28;20673;-74
2022/09/29 10:45:57;;;;;;;4.07;2.42;;;;;;;-145.69;100.00;70407.59;5035735;28;20254;-74
2022/09/29 10:48:25;;;;;;;5.40;2.53;;;;;;;-145.69;100.00;70459.31;5035841;28;20223;-74
2022/09/29 10:50:55;;;;;;;6.90;2.45;;;;;;;-145.69;100.00;70427.47;5035645;28;20293;-75
2022/09/29 10:53:33;;;;;;;8.48;2.60;;;;;;;-145.69;100.00;70367.81;5035481;28;20558;-75
2022/09/29 10:56:05;;;;;;;3.83;1.80;;;;;;;-145.69;99.01;70330.00;5035444;28;20235;-75
2022/09/29 10:58:34;;;;;;;5.38;1.85;;;;;;;-145.69;100.00;70375.75;5035436;28;20196;-75
2022/09/29 11:01:07;;;;;;;2.85;1.75;;;;;;;-145.69;100.00;70349.91;5035143;28;20238;-74
2022/09/29 11:03:38;;;;;;;4.70;1.70;;;;;;;-145.69;100.00;70359.84;5034842;28;20566;-74
2022/09/29 11:06:10;;;;;;;2.75;1.60;;;;;;;-145.69;100.00;70353.88;5035269;28;20662;-74
2022/09/29 11:08:59;;;;;;;3.97;2.08;;;;;;;-145.69;100.00;70383.72;5035353;28;20650;-74
2022/09/29 11:11:28;;;;;;;7.22;1.88;;;;;;;-145.69;100.00;70387.69;5035429;28;20290;-75
2022/09/29 11:13:55;;;;;;;2.47;1.60;;;;;;;-145.69;100.00;70407.59;5035261;28;20204;-74
2022/09/29 11:16:27;;;;;;;4.22;1.90;;;;;;;-145.69;100.00;70489.16;5035104;28;20318;-75
2022/09/29 11:18:57;;;;;;;4.18;1.90;;;;;;;-145.69;100.00;70507.06;5034770;28;20203;-74
2022/09/29 11:21:53;;;;;;;5.68;1.90;;;;;;;-145.69;100.00;70445.38;5035260;28;20200;-74
2022/09/29 11:24:30;;;;;;;4.43;2.40;;;;;;;-145.69;100.00;70415.53;5035099;28;20226;-74
2022/09/29 11:27:03;;;;;;;4.20;1.77;;;;;;;-145.69;100.00;70427.47;5034798;28;20206;-74